• Join FlightAware (Why Join?)
  • Login
  • US Flag 
10:50PM EDT


 

Airport Tracker/Info


-or-


 

Live Flight TrackerFlight Track Log ✈ UAL776 ✈ 12-May-2013 ✈ KSEA - KDEN

Flight Track Log - Related Links

Times and Time Zones

All times are in EDT time to prevent confusion due to time zone crossing. See the UAL776 flight status page for this flight to view local times or setup timezone preferences in your user account.

Time Position Orientation Groundspeed Altitude Reporting Facility
EDT Latitude Longitude Course Direction KTS MPH feet Rate Location/Type
01:48PM 47.4314 -122.3125 57° Northeast 161 185 1,400  Level Seattle Center
01:49PM 47.3839 -122.3092 177° South 197 227 2,900 2,460 Climbing Seattle Center
01:51PM 47.3041 -121.8407 96° East  Level Estimated
01:51PM 47.3058 -122.2744 163° South 252 290 7,100  Level Seattle Center
01:51PM 47.3017 -122.1878 94° East 304 350 9,500 3,000 Climbing Seattle Center
01:52PM 47.2550 -121.6842 90° East  Level Estimated
01:52PM 47.3125 -122.1506 67° East 308 354 10,200  Level Seattle Center
01:53PM 47.2058 -121.5280 104° East  Level Estimated
01:53PM 47.3403 -122.0214 72° East 332 382 12,500  Level Seattle Center
01:54PM 47.2701 -121.3842 57° Northeast  Level FlightAware Approximate
01:54PM 47.3506 -121.8647 84° East 389 448 14,200  Level Seattle Center
01:55PM 47.3358 -121.7056 98° East 392 451 17,000 2,160 Climbing Seattle Center
01:56PM 47.3228 -121.5542 97° East 407 468 18,700 1,740 Climbing Seattle Center
01:57PM 47.3103 -121.3839 96° East 421 484 20,600 1,860 Climbing Seattle Center
01:58PM 47.2958 -121.2100 97° East 431 496 22,600 1,980 Climbing Seattle Center
01:59PM 47.2792 -120.9953 96° East 442 509 24,700 1,620 Climbing Seattle Center
02:00PM 47.2700 -120.8100 94° East 456 525 25,900 1,080 Climbing Seattle Center
02:01PM 47.2550 -120.6364 97° East 466 536 27,000 1,080 Climbing Seattle Center
02:02PM 47.2350 -120.4450 99° East 474 545 28,200 1,260 Climbing Seattle Center
02:03PM 47.2064 -120.2514 102° East 484 557 29,600 1,140 Climbing Seattle Center
02:04PM 47.1781 -120.0586 102° East 486 559 30,600 1,080 Climbing Seattle Center
02:05PM 47.1436 -119.8211 102° East 495 570 31,800 1,320 Climbing Seattle Center
02:06PM 47.1128 -119.6222 103° East 499 574 33,300 1,200 Climbing Seattle Center
02:07PM 47.0833 -119.4275 102° East 493 567 34,300 900 Climbing Seattle Center
02:08PM 47.0522 -119.2300 103° East 497 572 35,200 900 Climbing Seattle Center
02:09PM 47.0214 -119.0317 103° East 499 574 36,200 840 Climbing Seattle Center
02:10PM 46.9894 -118.8347 103° East 500 575 37,000 780 Climbing Seattle Center
02:11PM 46.9594 -118.6403 103° East 496 571 37,800 480 Climbing Seattle Center
02:12PM 46.9294 -118.4467 103° East 494 568 38,000  Climbing Seattle Center
02:13PM 46.8967 -118.2550 104° East 489 563 37,900  Descending Seattle Center
02:14PM 46.8650 -118.0603 103° East 495 570 38,000  Climbing Seattle Center
02:15PM 46.8319 -117.8675 104° East 494 568 38,000  Level Seattle Center
02:16PM 46.7919 -117.6347 104° East 501 577 38,000  Level Seattle Center
02:17PM 46.7600 -117.4436 104° East 495 570 38,000 -60 Level Seattle Center
02:18PM 46.7092 -117.2669 113° Southeast 482 555 37,900 -60 Descending Seattle Center
02:19PM 46.6428 -117.0972 120° Southeast 485 558 37,900  Level Seattle Center
02:20PM 46.5758 -116.9275 120° Southeast 486 559 38,000  Climbing Seattle Center
02:21PM 46.5086 -116.7589 120° Southeast 486 559 38,000  Level Seattle Center
02:22PM 46.4411 -116.5881 120° Southeast 489 563 38,000  Level Seattle Center
02:23PM 46.3736 -116.4181 120° Southeast 489 563 38,000 -60 Level Seattle Center
02:24PM 46.3067 -116.2483 120° Southeast 488 562 37,900  Descending Seattle Center
02:25PM 46.2383 -116.0828 121° Southeast 484 557 38,000  Climbing Seattle Center
02:26PM 46.1569 -115.8833 120° Southeast 482 555 37,900 -60 Descending Seattle Center
02:27PM 46.0889 -115.7178 121° Southeast 482 555 37,900  Level Seattle Center
02:28PM 46.0208 -115.5492 120° Southeast 485 558 37,900  Level Seattle Center
02:29PM 45.9517 -115.3861 121° Southeast 483 556 37,900  Level Seattle Center
02:30PM 45.8814 -115.2200 121° Southeast 485 558 38,000 60 Climbing Seattle Center
02:30PM 45.8642 -115.1794 121° Southeast 479 551 38,000  Level Salt Lake Center
02:32PM 45.7967 -115.0178 121° Southeast 485 558 38,000  Level Salt Lake Center
02:33PM 45.7183 -114.8339 121° Southeast 486 559 38,000  Level Salt Lake Center
02:34PM 45.6517 -114.6758 121° Southeast 484 557 38,000  Level Salt Lake Center
02:35PM 45.5731 -114.4953 122° Southeast 480 552 38,000  Level Salt Lake Center
02:36PM 45.5075 -114.3414 121° Southeast 476 548 38,000  Level Salt Lake Center
02:37PM 45.4403 -114.1883 122° Southeast 474 545 38,000  Level Salt Lake Center
02:38PM 45.3619 -114.0072 122° Southeast 478 550 38,000  Level Salt Lake Center
02:39PM 45.2872 -113.8419 123° Southeast 481 554 38,000  Level Salt Lake Center
02:40PM 45.2217 -113.6883 121° Southeast 478 550 38,000  Level Salt Lake Center
02:41PM 45.1392 -113.5092 123° Southeast 484 557 38,000  Level Salt Lake Center
02:42PM 45.0722 -113.3564 122° Southeast 479 551 38,000  Level Salt Lake Center
02:43PM 44.9933 -113.1806 122° Southeast 476 548 38,000  Level Salt Lake Center
02:44PM 44.9250 -113.0292 122° Southeast 478 550 38,000  Level Salt Lake Center
02:45PM 44.8444 -112.8536 123° Southeast 478 550 38,000  Level Salt Lake Center
02:46PM 44.7750 -112.7025 123° Southeast 480 552 38,000  Level Salt Lake Center
02:47PM 44.7067 -112.5517 122° Southeast 479 551 38,000  Level Salt Lake Center
02:48PM 44.6242 -112.3764 123° Southeast 482 555 38,000  Level Salt Lake Center
02:49PM 44.5558 -112.2269 123° Southeast 478 550 38,000  Level Salt Lake Center
02:50PM 44.4747 -112.0536 123° Southeast 479 551 38,000  Level Salt Lake Center
02:51PM 44.4044 -111.9047 123° Southeast 481 554 38,000  Level Salt Lake Center
02:52PM 44.3233 -111.7333 123° Southeast 479 551 38,000  Level Salt Lake Center
02:53PM 44.2531 -111.5878 124° Southeast 478 550 38,000  Level Salt Lake Center
02:54PM 44.1728 -111.4178 123° Southeast 474 545 38,000  Level Salt Lake Center
02:55PM 44.1028 -111.2725 124° Southeast 473 544 38,000  Level Salt Lake Center
02:56PM 44.0206 -111.1011 124° Southeast 478 550 38,000  Level Salt Lake Center
02:57PM 43.9489 -110.9547 124° Southeast 479 551 38,000  Level Salt Lake Center
02:58PM 43.8675 -110.7853 124° Southeast 476 548 38,000  Level Salt Lake Center
02:59PM 43.7967 -110.6417 124° Southeast 473 544 38,000  Level Salt Lake Center
03:00PM 43.7256 -110.4969 124° Southeast 475 547 38,000  Level Salt Lake Center
03:01PM 43.6422 -110.3303 125° Southeast 473 544 38,000  Level Salt Lake Center
03:02PM 43.5700 -110.1878 125° Southeast 474 545 38,000  Level Salt Lake Center
03:03PM 43.4947 -110.0369 124° Southeast 471 542 38,000  Level Salt Lake Center
03:04PM 43.4119 -109.8725 125° Southeast 468 539 38,000  Level Salt Lake Center
03:05PM 43.3333 -109.7219 126° Southeast 463 533 38,000  Level Salt Lake Center
03:06PM 43.2622 -109.5839 125° Southeast 463 533 38,000  Level Salt Lake Center
03:08PM 43.1800 -109.4222 125° Southeast 463 533 38,000  Level Salt Lake Center
03:09PM 43.1081 -109.2856 126° Southeast 463 533 38,000  Level Salt Lake Center
03:10PM 43.0369 -109.1453 125° Southeast 466 536 38,000  Level Salt Lake Center
03:11PM 42.9592 -108.9967 126° Southeast 464 534 38,000  Level Salt Lake Center
03:12PM 42.8758 -108.8367 125° Southeast 464 534 38,000  Level Salt Lake Center
03:13PM 42.8039 -108.6992 125° Southeast 465 535 38,000  Level Salt Lake Center
03:14PM 42.7206 -108.5417 126° Southeast 460 529 38,000  Level Salt Lake Center
03:15PM 42.6483 -108.4050 126° Southeast 463 533 38,000  Level Salt Lake Center
03:16PM 42.5758 -108.2669 125° Southeast 466 536 38,000  Level Salt Lake Center
03:17PM 42.4911 -108.1086 126° Southeast 464 534 38,000  Level Salt Lake Center
03:18PM 42.4183 -107.9756 127° Southeast 463 533 38,000  Level Salt Lake Center
03:19PM 42.3328 -107.8158 126° Southeast 468 539 38,000  Level Salt Lake Center
03:20PM 42.2539 -107.6844 129° Southeast 470 541 38,000  Level Salt Lake Center
03:20PM 42.1969 -107.6028 133° Southeast 468 539 38,000  Level Denver Center
03:21PM 42.1117 -107.4789 133° Southeast 469 540 38,000  Level Denver Center
03:22PM 42.0114 -107.3372 134° Southeast 469 540 38,000  Level Denver Center
03:24PM 41.9275 -107.2156 133° Southeast 464 534 38,000  Level Denver Center
03:25PM 41.8425 -107.0944 133° Southeast 465 535 38,000  Level Denver Center
03:26PM 41.7444 -106.9544 133° Southeast 462 532 38,000  Level Denver Center
03:27PM 41.6586 -106.8356 134° Southeast 463 533 38,000  Level Denver Center
03:28PM 41.5594 -106.6967 134° Southeast 462 532 38,000  Level Denver Center
03:29PM 41.4739 -106.5767 134° Southeast 465 535 38,000  Level Denver Center
03:30PM 41.3864 -106.4547 134° Southeast 460 529 38,000  Level Denver Center
03:31PM 41.2864 -106.3172 134° Southeast 462 532 38,000 -300 Level Denver Center
03:32PM 41.1908 -106.1842 134° Southeast 461 531 37,400 -1,560 Descending Denver Center
03:33PM 41.1025 -106.0633 134° Southeast 461 531 34,800 -2,520 Descending Denver Center
03:34PM 41.0186 -105.9483 134° Southeast 456 525 32,300 -2,280 Descending Denver Center
03:35PM 40.9344 -105.8333 134° Southeast 462 532 30,200 -2,280 Descending Denver Center
03:36PM 40.8353 -105.6983 134° Southeast 452 520 27,700 -2,280 Descending Denver Center
03:37PM 40.7431 -105.5739 134° Southeast 444 511 25,500 -2,100 Descending Denver Center
03:38PM 40.6603 -105.4614 134° Southeast 429 494 23,400 -2,040 Descending Denver Center
03:39PM 40.5711 -105.3389 134° Southeast 420 483 21,400 -1,380 Descending Denver Center
03:40PM 40.4969 -105.2433 136° Southeast 405 466 20,600 -1,140 Descending Denver Center
03:41PM 40.4097 -105.1697 147° Southeast 368 423 19,100 -1,320 Descending Denver Center
03:42PM 40.3200 -105.0967 148° Southeast 354 407 17,900 -1,200 Descending Denver Center
03:43PM 40.2383 -105.0347 150° Southeast 342 394 16,700 -1,140 Descending Denver Center
03:44PM 40.1608 -104.9708 148° Southeast 332 382 15,600 -1,140 Descending Denver Center
03:45PM 40.0561 -104.8892 149° Southeast 336 387 14,200 -1,080 Descending Denver Center
03:46PM 39.9781 -104.8250 148° Southeast 333 383 13,200 -1,020 Descending Denver Center
03:47PM 39.8928 -104.8025 169° South 322 371 12,200 -960 Descending Denver Center
03:48PM 39.8031 -104.8089 183° South 305 351 11,300 -720 Descending Denver Center
03:50PM 39.7292 -104.8117 182° South 273 314 10,600 -1,080 Descending Denver Center
03:51PM 39.6900 -104.7436 127° Southeast 246 283 8,900 -1,680 Descending Denver Center